Terminal Aerodrome Forecast
Issued by NWS

Home | Current Version | Previous Version | Text Only | Print | Product List | Glossary On
Versions: 1 2 3 4 5 6 7 8 9 10 11 12 13 14 15 16 17 18 19 20 21
000
FTUS44 KHGX 231122
TAFCXO
TAF
KCXO 231122Z 2312/2412 VRB03KT P6SM OVC250
     FM231500 05006KT P6SM BKN250
     FM240400 00000KT P6SM FEW250
      TEMPO 2409/2412 MIFG=

USA.gov is the U.S. government's official web portal to all federal, state and local government web resources and services.